sensor_id;sensor_type;location;lat;lon;timestamp;P1;durP1;ratioP1;P2;durP2;ratioP2
2035;SDS011;23642;42.658;23.350;2023-05-07T00:00:57;98.57;;;92.37;;
2035;SDS011;23642;42.658;23.350;2023-05-07T00:03:26;98.27;;;91.97;;
2035;SDS011;23642;42.658;23.350;2023-05-07T00:05:53;99.47;;;93.00;;
2035;SDS011;23642;42.658;23.350;2023-05-07T00:08:22;100.77;;;93.93;;
2035;SDS011;23642;42.658;23.350;2023-05-07T00:10:49;102.50;;;95.20;;
2035;SDS011;23642;42.658;23.350;2023-05-07T00:13:16;103.63;;;96.53;;
2035;SDS011;23642;42.658;23.350;2023-05-07T00:15:43;100.37;;;93.33;;
2035;SDS011;23642;42.658;23.350;2023-05-07T00:18:10;100.00;;;92.77;;
2035;SDS011;23642;42.658;23.350;2023-05-07T00:20:39;98.47;;;91.53;;
2035;SDS011;23642;42.658;23.350;2023-05-07T00:23:06;97.40;;;90.80;;
2035;SDS011;23642;42.658;23.350;2023-05-07T00:25:33;97.63;;;90.87;;
2035;SDS011;23642;42.658;23.350;2023-05-07T00:28:03;96.20;;;89.70;;
2035;SDS011;23642;42.658;23.350;2023-05-07T00:30:30;96.27;;;89.83;;
2035;SDS011;23642;42.658;23.350;2023-05-07T00:32:57;96.13;;;89.43;;
2035;SDS011;23642;42.658;23.350;2023-05-07T00:35:25;95.50;;;89.00;;
2035;SDS011;23642;42.658;23.350;2023-05-07T00:37:54;95.43;;;88.83;;
2035;SDS011;23642;42.658;23.350;2023-05-07T00:40:21;97.30;;;90.50;;
2035;SDS011;23642;42.658;23.350;2023-05-07T00:42:49;95.13;;;88.80;;
2035;SDS011;23642;42.658;23.350;2023-05-07T00:45:23;95.77;;;89.10;;
2035;SDS011;23642;42.658;23.350;2023-05-07T00:47:55;90.30;;;83.83;;
2035;SDS011;23642;42.658;23.350;2023-05-07T00:50:25;89.70;;;83.77;;
2035;SDS011;23642;42.658;23.350;2023-05-07T00:52:56;90.00;;;83.87;;
2035;SDS011;23642;42.658;23.350;2023-05-07T00:55:25;92.37;;;86.23;;
2035;SDS011;23642;42.658;23.350;2023-05-07T00:57:53;91.77;;;85.87;;
2035;SDS011;23642;42.658;23.350;2023-05-07T01:00:23;90.40;;;84.30;;
2035;SDS011;23642;42.658;23.350;2023-05-07T01:02:51;90.33;;;84.30;;
2035;SDS011;23642;42.658;23.350;2023-05-07T01:05:18;88.67;;;82.87;;
2035;SDS011;23642;42.658;23.350;2023-05-07T01:07:46;90.57;;;84.40;;
2035;SDS011;23642;42.658;23.350;2023-05-07T01:10:16;89.90;;;83.80;;
2035;SDS011;23642;42.658;23.350;2023-05-07T01:12:44;89.53;;;83.33;;
2035;SDS011;23642;42.658;23.350;2023-05-07T01:15:13;88.23;;;82.43;;
2035;SDS011;23642;42.658;23.350;2023-05-07T01:17:41;88.40;;;82.50;;
2035;SDS011;23642;42.658;23.350;2023-05-07T01:20:14;86.37;;;80.70;;
2035;SDS011;23642;42.658;23.350;2023-05-07T01:22:46;85.80;;;80.23;;
2035;SDS011;23642;42.658;23.350;2023-05-07T01:25:14;84.87;;;79.40;;
2035;SDS011;23642;42.658;23.350;2023-05-07T01:27:42;84.90;;;79.50;;
2035;SDS011;23642;42.658;23.350;2023-05-07T01:30:10;86.03;;;80.63;;
2035;SDS011;23642;42.658;23.350;2023-05-07T01:32:38;84.90;;;79.00;;
2035;SDS011;23642;42.658;23.350;2023-05-07T01:35:11;85.27;;;79.77;;
2035;SDS011;23642;42.658;23.350;2023-05-07T01:37:42;85.03;;;79.63;;
2035;SDS011;23642;42.658;23.350;2023-05-07T01:40:11;84.57;;;79.17;;
2035;SDS011;23642;42.658;23.350;2023-05-07T01:42:43;85.53;;;79.97;;
2035;SDS011;23642;42.658;23.350;2023-05-07T01:45:11;85.20;;;79.90;;
2035;SDS011;23642;42.658;23.350;2023-05-07T01:47:40;83.60;;;78.17;;
2035;SDS011;23642;42.658;23.350;2023-05-07T01:50:10;85.10;;;79.77;;
2035;SDS011;23642;42.658;23.350;2023-05-07T01:52:39;87.87;;;82.27;;
2035;SDS011;23642;42.658;23.350;2023-05-07T01:55:09;88.10;;;82.20;;
2035;SDS011;23642;42.658;23.350;2023-05-07T01:57:37;85.93;;;80.33;;
2035;SDS011;23642;42.658;23.350;2023-05-07T02:00:05;85.27;;;79.77;;
2035;SDS011;23642;42.658;23.350;2023-05-07T02:02:34;83.37;;;77.80;;
2035;SDS011;23642;42.658;23.350;2023-05-07T02:05:01;85.93;;;80.03;;
2035;SDS011;23642;42.658;23.350;2023-05-07T02:07:28;85.17;;;79.47;;
2035;SDS011;23642;42.658;23.350;2023-05-07T02:09:55;85.60;;;80.00;;
2035;SDS011;23642;42.658;23.350;2023-05-07T02:12:25;86.00;;;80.30;;
2035;SDS011;23642;42.658;23.350;2023-05-07T02:14:54;86.37;;;80.67;;
2035;SDS011;23642;42.658;23.350;2023-05-07T02:17:23;86.67;;;81.03;;
2035;SDS011;23642;42.658;23.350;2023-05-07T02:19:50;85.17;;;79.67;;
2035;SDS011;23642;42.658;23.350;2023-05-07T02:22:17;85.30;;;79.77;;
2035;SDS011;23642;42.658;23.350;2023-05-07T02:24:44;88.10;;;82.00;;
2035;SDS011;23642;42.658;23.350;2023-05-07T02:27:11;87.60;;;82.00;;
2035;SDS011;23642;42.658;23.350;2023-05-07T02:29:40;87.40;;;81.47;;
2035;SDS011;23642;42.658;23.350;2023-05-07T02:32:07;88.20;;;82.50;;
2035;SDS011;23642;42.658;23.350;2023-05-07T02:34:34;88.03;;;82.43;;
2035;SDS011;23642;42.658;23.350;2023-05-07T02:37:01;90.40;;;84.70;;
2035;SDS011;23642;42.658;23.350;2023-05-07T02:39:28;86.80;;;81.10;;
2035;SDS011;23642;42.658;23.350;2023-05-07T02:41:55;89.33;;;83.43;;
2035;SDS011;23642;42.658;23.350;2023-05-07T02:44:22;88.40;;;82.60;;
2035;SDS011;23642;42.658;23.350;2023-05-07T02:46:50;89.80;;;83.57;;
2035;SDS011;23642;42.658;23.350;2023-05-07T02:49:17;88.30;;;82.50;;
2035;SDS011;23642;42.658;23.350;2023-05-07T02:51:44;89.07;;;83.33;;
2035;SDS011;23642;42.658;23.350;2023-05-07T02:54:12;90.33;;;84.47;;
2035;SDS011;23642;42.658;23.350;2023-05-07T02:56:39;91.30;;;85.30;;
2035;SDS011;23642;42.658;23.350;2023-05-07T02:59:06;89.77;;;84.07;;
2035;SDS011;23642;42.658;23.350;2023-05-07T03:01:33;94.20;;;88.03;;
2035;SDS011;23642;42.658;23.350;2023-05-07T03:04:01;91.43;;;85.30;;
2035;SDS011;23642;42.658;23.350;2023-05-07T03:06:28;89.60;;;83.90;;
2035;SDS011;23642;42.658;23.350;2023-05-07T03:08:55;92.20;;;86.30;;
2035;SDS011;23642;42.658;23.350;2023-05-07T03:11:22;94.47;;;87.97;;
2035;SDS011;23642;42.658;23.350;2023-05-07T03:13:49;90.60;;;84.87;;
2035;SDS011;23642;42.658;23.350;2023-05-07T03:16:16;91.30;;;85.40;;
2035;SDS011;23642;42.658;23.350;2023-05-07T03:18:43;91.07;;;85.10;;
2035;SDS011;23642;42.658;23.350;2023-05-07T03:21:12;91.03;;;84.70;;
2035;SDS011;23642;42.658;23.350;2023-05-07T03:23:41;91.03;;;84.43;;
2035;SDS011;23642;42.658;23.350;2023-05-07T03:26:08;92.03;;;85.93;;
2035;SDS011;23642;42.658;23.350;2023-05-07T03:28:35;91.10;;;84.90;;
2035;SDS011;23642;42.658;23.350;2023-05-07T03:31:05;88.47;;;82.57;;
2035;SDS011;23642;42.658;23.350;2023-05-07T03:33:32;88.60;;;82.70;;
2035;SDS011;23642;42.658;23.350;2023-05-07T03:36:00;89.17;;;82.90;;
2035;SDS011;23642;42.658;23.350;2023-05-07T03:38:29;86.93;;;81.13;;
2035;SDS011;23642;42.658;23.350;2023-05-07T03:40:56;89.47;;;83.47;;
2035;SDS011;23642;42.658;23.350;2023-05-07T03:43:23;85.27;;;79.50;;
2035;SDS011;23642;42.658;23.350;2023-05-07T03:45:50;88.37;;;82.07;;
2035;SDS011;23642;42.658;23.350;2023-05-07T03:48:18;89.70;;;83.37;;
2035;SDS011;23642;42.658;23.350;2023-05-07T03:50:46;87.80;;;81.60;;
2035;SDS011;23642;42.658;23.350;2023-05-07T03:53:14;85.33;;;79.53;;
2035;SDS011;23642;42.658;23.350;2023-05-07T03:55:42;88.80;;;82.50;;
2035;SDS011;23642;42.658;23.350;2023-05-07T03:58:12;89.87;;;83.37;;
2035;SDS011;23642;42.658;23.350;2023-05-07T04:00:39;84.57;;;78.77;;
2035;SDS011;23642;42.658;23.350;2023-05-07T04:03:06;84.93;;;79.13;;
2035;SDS011;23642;42.658;23.350;2023-05-07T04:05:38;84.67;;;78.57;;
2035;SDS011;23642;42.658;23.350;2023-05-07T04:08:05;84.27;;;78.67;;
2035;SDS011;23642;42.658;23.350;2023-05-07T04:10:32;87.17;;;81.43;;
2035;SDS011;23642;42.658;23.350;2023-05-07T04:13:00;89.83;;;83.70;;
2035;SDS011;23642;42.658;23.350;2023-05-07T04:15:28;88.27;;;82.20;;
2035;SDS011;23642;42.658;23.350;2023-05-07T04:17:55;88.33;;;81.87;;
2035;SDS011;23642;42.658;23.350;2023-05-07T04:20:23;91.33;;;85.17;;
2035;SDS011;23642;42.658;23.350;2023-05-07T04:22:50;89.30;;;83.07;;
2035;SDS011;23642;42.658;23.350;2023-05-07T04:25:19;87.23;;;81.33;;
2035;SDS011;23642;42.658;23.350;2023-05-07T04:27:52;89.17;;;82.97;;
2035;SDS011;23642;42.658;23.350;2023-05-07T04:30:20;87.87;;;82.17;;
2035;SDS011;23642;42.658;23.350;2023-05-07T04:32:47;90.53;;;84.37;;
2035;SDS011;23642;42.658;23.350;2023-05-07T04:35:14;90.73;;;84.67;;
2035;SDS011;23642;42.658;23.350;2023-05-07T04:37:53;90.10;;;84.10;;
2035;SDS011;23642;42.658;23.350;2023-05-07T04:40:21;89.77;;;83.40;;
2035;SDS011;23642;42.658;23.350;2023-05-07T04:42:51;89.70;;;83.87;;
2035;SDS011;23642;42.658;23.350;2023-05-07T04:45:19;92.27;;;86.20;;
2035;SDS011;23642;42.658;23.350;2023-05-07T04:47:47;93.43;;;87.00;;
2035;SDS011;23642;42.658;23.350;2023-05-07T04:50:14;94.67;;;88.20;;
2035;SDS011;23642;42.658;23.350;2023-05-07T04:52:41;93.67;;;87.27;;
2035;SDS011;23642;42.658;23.350;2023-05-07T04:55:08;95.77;;;88.83;;
2035;SDS011;23642;42.658;23.350;2023-05-07T04:57:36;96.43;;;89.73;;
2035;SDS011;23642;42.658;23.350;2023-05-07T05:00:05;95.33;;;89.07;;
2035;SDS011;23642;42.658;23.350;2023-05-07T05:02:35;94.73;;;88.53;;
2035;SDS011;23642;42.658;23.350;2023-05-07T05:05:02;96.80;;;90.40;;
2035;SDS011;23642;42.658;23.350;2023-05-07T05:07:29;96.83;;;90.40;;
2035;SDS011;23642;42.658;23.350;2023-05-07T05:09:56;97.60;;;90.97;;
2035;SDS011;23642;42.658;23.350;2023-05-07T05:12:26;97.57;;;91.27;;
2035;SDS011;23642;42.658;23.350;2023-05-07T05:14:53;99.37;;;92.20;;
2035;SDS011;23642;42.658;23.350;2023-05-07T05:17:22;99.43;;;92.83;;
2035;SDS011;23642;42.658;23.350;2023-05-07T05:19:51;97.00;;;90.40;;
2035;SDS011;23642;42.658;23.350;2023-05-07T05:22:18;99.83;;;93.33;;
2035;SDS011;23642;42.658;23.350;2023-05-07T05:24:45;98.60;;;92.40;;
2035;SDS011;23642;42.658;23.350;2023-05-07T05:27:12;98.00;;;91.40;;
2035;SDS011;23642;42.658;23.350;2023-05-07T05:29:39;99.17;;;92.67;;
2035;SDS011;23642;42.658;23.350;2023-05-07T05:32:08;99.10;;;92.60;;
2035;SDS011;23642;42.658;23.350;2023-05-07T05:34:35;102.43;;;94.80;;
2035;SDS011;23642;42.658;23.350;2023-05-07T05:37:04;100.10;;;93.40;;
2035;SDS011;23642;42.658;23.350;2023-05-07T05:39:31;99.70;;;92.90;;
2035;SDS011;23642;42.658;23.350;2023-05-07T05:41:58;99.93;;;93.03;;
2035;SDS011;23642;42.658;23.350;2023-05-07T05:44:27;100.23;;;93.53;;
2035;SDS011;23642;42.658;23.350;2023-05-07T05:46:57;98.17;;;91.67;;
2035;SDS011;23642;42.658;23.350;2023-05-07T05:49:25;102.53;;;95.43;;
2035;SDS011;23642;42.658;23.350;2023-05-07T05:51:55;100.53;;;93.50;;
2035;SDS011;23642;42.658;23.350;2023-05-07T05:54:32;104.10;;;97.20;;
2035;SDS011;23642;42.658;23.350;2023-05-07T05:57:01;101.70;;;95.10;;
2035;SDS011;23642;42.658;23.350;2023-05-07T05:59:29;100.40;;;93.50;;
2035;SDS011;23642;42.658;23.350;2023-05-07T06:02:08;101.70;;;94.77;;
2035;SDS011;23642;42.658;23.350;2023-05-07T06:04:35;102.40;;;95.60;;
2035;SDS011;23642;42.658;23.350;2023-05-07T06:07:02;101.53;;;95.00;;
2035;SDS011;23642;42.658;23.350;2023-05-07T06:09:29;103.37;;;96.63;;
2035;SDS011;23642;42.658;23.350;2023-05-07T06:11:57;102.03;;;95.20;;
2035;SDS011;23642;42.658;23.350;2023-05-07T06:14:24;102.73;;;96.00;;
2035;SDS011;23642;42.658;23.350;2023-05-07T06:16:54;100.97;;;94.07;;
2035;SDS011;23642;42.658;23.350;2023-05-07T06:19:21;103.03;;;96.50;;
2035;SDS011;23642;42.658;23.350;2023-05-07T06:21:49;103.07;;;96.37;;
2035;SDS011;23642;42.658;23.350;2023-05-07T06:24:16;102.10;;;95.40;;
2035;SDS011;23642;42.658;23.350;2023-05-07T06:26:43;103.27;;;96.53;;
2035;SDS011;23642;42.658;23.350;2023-05-07T06:29:11;103.13;;;96.43;;
2035;SDS011;23642;42.658;23.350;2023-05-07T06:31:38;101.07;;;94.47;;
2035;SDS011;23642;42.658;23.350;2023-05-07T06:34:06;100.90;;;94.50;;
2035;SDS011;23642;42.658;23.350;2023-05-07T06:36:33;101.93;;;95.13;;
2035;SDS011;23642;42.658;23.350;2023-05-07T06:39:01;98.70;;;91.90;;
2035;SDS011;23642;42.658;23.350;2023-05-07T06:41:28;101.33;;;94.83;;
2035;SDS011;23642;42.658;23.350;2023-05-07T06:43:55;101.70;;;95.00;;
2035;SDS011;23642;42.658;23.350;2023-05-07T06:46:23;100.83;;;94.20;;
2035;SDS011;23642;42.658;23.350;2023-05-07T06:48:50;100.63;;;94.03;;
2035;SDS011;23642;42.658;23.350;2023-05-07T06:51:18;101.20;;;94.40;;
2035;SDS011;23642;42.658;23.350;2023-05-07T06:53:45;102.37;;;95.20;;
2035;SDS011;23642;42.658;23.350;2023-05-07T06:56:12;102.50;;;95.47;;
2035;SDS011;23642;42.658;23.350;2023-05-07T06:58:39;103.23;;;96.33;;
2035;SDS011;23642;42.658;23.350;2023-05-07T07:01:10;103.30;;;96.60;;
2035;SDS011;23642;42.658;23.350;2023-05-07T07:03:47;102.07;;;95.50;;
2035;SDS011;23642;42.658;23.350;2023-05-07T07:06:16;100.87;;;94.37;;
2035;SDS011;23642;42.658;23.350;2023-05-07T07:08:43;103.83;;;97.07;;
2035;SDS011;23642;42.658;23.350;2023-05-07T07:11:10;99.30;;;92.90;;
2035;SDS011;23642;42.658;23.350;2023-05-07T07:13:40;101.67;;;94.63;;
2035;SDS011;23642;42.658;23.350;2023-05-07T07:16:08;99.77;;;93.27;;
2035;SDS011;23642;42.658;23.350;2023-05-07T07:18:35;98.97;;;91.93;;
2035;SDS011;23642;42.658;23.350;2023-05-07T07:21:04;99.30;;;92.93;;
2035;SDS011;23642;42.658;23.350;2023-05-07T07:23:34;101.87;;;94.97;;
2035;SDS011;23642;42.658;23.350;2023-05-07T07:26:05;101.50;;;94.80;;
2035;SDS011;23642;42.658;23.350;2023-05-07T07:28:34;100.53;;;93.73;;
2035;SDS011;23642;42.658;23.350;2023-05-07T07:31:02;99.33;;;92.63;;
2035;SDS011;23642;42.658;23.350;2023-05-07T07:33:29;102.23;;;95.53;;
2035;SDS011;23642;42.658;23.350;2023-05-07T07:35:57;97.60;;;91.00;;
2035;SDS011;23642;42.658;23.350;2023-05-07T07:38:26;100.30;;;93.60;;
2035;SDS011;23642;42.658;23.350;2023-05-07T07:40:53;99.47;;;92.97;;
2035;SDS011;23642;42.658;23.350;2023-05-07T07:43:20;99.43;;;92.83;;
2035;SDS011;23642;42.658;23.350;2023-05-07T07:45:48;100.40;;;93.17;;
2035;SDS011;23642;42.658;23.350;2023-05-07T07:48:23;99.70;;;93.00;;
2035;SDS011;23642;42.658;23.350;2023-05-07T07:50:50;100.17;;;93.60;;
2035;SDS011;23642;42.658;23.350;2023-05-07T07:53:17;102.63;;;95.93;;
2035;SDS011;23642;42.658;23.350;2023-05-07T07:55:46;102.53;;;96.00;;
2035;SDS011;23642;42.658;23.350;2023-05-07T07:58:13;100.53;;;93.80;;
2035;SDS011;23642;42.658;23.350;2023-05-07T08:00:40;100.73;;;94.20;;
2035;SDS011;23642;42.658;23.350;2023-05-07T08:03:09;101.70;;;94.83;;
2035;SDS011;23642;42.658;23.350;2023-05-07T08:05:39;101.40;;;94.70;;
2035;SDS011;23642;42.658;23.350;2023-05-07T08:08:06;100.17;;;93.77;;
2035;SDS011;23642;42.658;23.350;2023-05-07T08:10:36;101.33;;;94.27;;
2035;SDS011;23642;42.658;23.350;2023-05-07T08:13:05;102.90;;;96.20;;
2035;SDS011;23642;42.658;23.350;2023-05-07T08:15:35;102.13;;;95.37;;
2035;SDS011;23642;42.658;23.350;2023-05-07T08:18:02;102.00;;;95.27;;
2035;SDS011;23642;42.658;23.350;2023-05-07T08:20:37;103.90;;;97.20;;
2035;SDS011;23642;42.658;23.350;2023-05-07T08:23:04;101.23;;;94.40;;
2035;SDS011;23642;42.658;23.350;2023-05-07T08:25:32;107.47;;;100.30;;
2035;SDS011;23642;42.658;23.350;2023-05-07T08:28:00;101.13;;;94.33;;
2035;SDS011;23642;42.658;23.350;2023-05-07T08:30:29;102.00;;;95.47;;
2035;SDS011;23642;42.658;23.350;2023-05-07T08:32:59;101.20;;;94.70;;
2035;SDS011;23642;42.658;23.350;2023-05-07T08:35:27;101.57;;;94.33;;
2035;SDS011;23642;42.658;23.350;2023-05-07T08:37:58;101.83;;;94.63;;
2035;SDS011;23642;42.658;23.350;2023-05-07T08:40:25;101.73;;;94.73;;
2035;SDS011;23642;42.658;23.350;2023-05-07T08:42:53;102.80;;;96.17;;
2035;SDS011;23642;42.658;23.350;2023-05-07T08:45:21;101.40;;;95.00;;
2035;SDS011;23642;42.658;23.350;2023-05-07T08:47:51;100.30;;;93.80;;
2035;SDS011;23642;42.658;23.350;2023-05-07T08:50:28;102.57;;;95.77;;
2035;SDS011;23642;42.658;23.350;2023-05-07T08:52:55;99.03;;;92.73;;
2035;SDS011;23642;42.658;23.350;2023-05-07T08:55:23;97.47;;;90.67;;
2035;SDS011;23642;42.658;23.350;2023-05-07T08:57:51;99.00;;;92.50;;
2035;SDS011;23642;42.658;23.350;2023-05-07T09:00:21;100.53;;;94.20;;
2035;SDS011;23642;42.658;23.350;2023-05-07T09:02:50;99.17;;;92.67;;
2035;SDS011;23642;42.658;23.350;2023-05-07T09:05:18;99.63;;;93.13;;
2035;SDS011;23642;42.658;23.350;2023-05-07T09:07:46;99.77;;;92.97;;
2035;SDS011;23642;42.658;23.350;2023-05-07T09:10:13;100.47;;;94.13;;
2035;SDS011;23642;42.658;23.350;2023-05-07T09:12:42;98.33;;;91.97;;
2035;SDS011;23642;42.658;23.350;2023-05-07T09:15:09;99.50;;;92.97;;
2035;SDS011;23642;42.658;23.350;2023-05-07T09:17:39;97.67;;;91.47;;
2035;SDS011;23642;42.658;23.350;2023-05-07T09:20:09;96.93;;;90.20;;
2035;SDS011;23642;42.658;23.350;2023-05-07T09:22:39;97.53;;;91.37;;
2035;SDS011;23642;42.658;23.350;2023-05-07T09:25:11;98.50;;;91.93;;
2035;SDS011;23642;42.658;23.350;2023-05-07T09:27:38;97.63;;;91.47;;
2035;SDS011;23642;42.658;23.350;2023-05-07T09:30:08;97.20;;;90.90;;
2035;SDS011;23642;42.658;23.350;2023-05-07T09:32:39;100.03;;;93.87;;
2035;SDS011;23642;42.658;23.350;2023-05-07T09:35:15;97.77;;;91.30;;
2035;SDS011;23642;42.658;23.350;2023-05-07T09:37:43;97.43;;;91.33;;
2035;SDS011;23642;42.658;23.350;2023-05-07T09:40:19;97.53;;;91.50;;
2035;SDS011;23642;42.658;23.350;2023-05-07T09:42:47;97.03;;;90.97;;
2035;SDS011;23642;42.658;23.350;2023-05-07T09:45:15;98.27;;;92.27;;
2035;SDS011;23642;42.658;23.350;2023-05-07T09:47:42;97.67;;;91.47;;
2035;SDS011;23642;42.658;23.350;2023-05-07T09:50:11;98.70;;;92.70;;
2035;SDS011;23642;42.658;23.350;2023-05-07T09:52:43;98.10;;;92.03;;
2035;SDS011;23642;42.658;23.350;2023-05-07T09:55:11;95.30;;;89.40;;
2035;SDS011;23642;42.658;23.350;2023-05-07T09:57:39;95.30;;;89.40;;
2035;SDS011;23642;42.658;23.350;2023-05-07T10:00:08;98.00;;;92.00;;
2035;SDS011;23642;42.658;23.350;2023-05-07T10:02:37;95.77;;;89.87;;
2035;SDS011;23642;42.658;23.350;2023-05-07T10:05:11;98.57;;;92.37;;
2035;SDS011;23642;42.658;23.350;2023-05-07T10:07:39;95.97;;;89.97;;
2035;SDS011;23642;42.658;23.350;2023-05-07T10:10:08;97.20;;;91.30;;
2035;SDS011;23642;42.658;23.350;2023-05-07T10:12:36;94.50;;;88.80;;
2035;SDS011;23642;42.658;23.350;2023-05-07T10:15:06;95.17;;;89.43;;
2035;SDS011;23642;42.658;23.350;2023-05-07T10:17:35;97.77;;;91.77;;
2035;SDS011;23642;42.658;23.350;2023-05-07T10:20:02;95.60;;;89.60;;
2035;SDS011;23642;42.658;23.350;2023-05-07T10:22:30;94.77;;;88.97;;
2035;SDS011;23642;42.658;23.350;2023-05-07T10:25:16;96.87;;;90.83;;
2035;SDS011;23642;42.658;23.350;2023-05-07T10:27:45;96.87;;;90.50;;
2035;SDS011;23642;42.658;23.350;2023-05-07T10:30:24;96.93;;;90.93;;
2035;SDS011;23642;42.658;23.350;2023-05-07T10:32:59;93.93;;;88.07;;
2035;SDS011;23642;42.658;23.350;2023-05-07T10:35:31;97.60;;;91.63;;
2035;SDS011;23642;42.658;23.350;2023-05-07T10:38:13;98.00;;;91.77;;
2035;SDS011;23642;42.658;23.350;2023-05-07T10:40:42;95.97;;;90.17;;
2035;SDS011;23642;42.658;23.350;2023-05-07T10:43:10;97.73;;;91.63;;
2035;SDS011;23642;42.658;23.350;2023-05-07T10:45:40;94.47;;;88.77;;
2035;SDS011;23642;42.658;23.350;2023-05-07T10:48:08;98.53;;;92.43;;
2035;SDS011;23642;42.658;23.350;2023-05-07T10:50:37;97.77;;;91.83;;
2035;SDS011;23642;42.658;23.350;2023-05-07T10:53:20;98.43;;;92.43;;
2035;SDS011;23642;42.658;23.350;2023-05-07T10:58:55;95.97;;;90.27;;
2035;SDS011;23642;42.658;23.350;2023-05-07T11:01:49;94.33;;;88.73;;
2035;SDS011;23642;42.658;23.350;2023-05-07T11:04:17;95.60;;;89.90;;
2035;SDS011;23642;42.658;23.350;2023-05-07T11:09:54;95.43;;;89.77;;
2035;SDS011;23642;42.658;23.350;2023-05-07T11:18:13;94.53;;;88.80;;
2035;SDS011;23642;42.658;23.350;2023-05-07T11:20:48;96.70;;;90.83;;
2035;SDS011;23642;42.658;23.350;2023-05-07T11:26:24;96.07;;;90.07;;
2035;SDS011;23642;42.658;23.350;2023-05-07T11:28:53;96.00;;;90.20;;
2035;SDS011;23642;42.658;23.350;2023-05-07T11:31:24;92.53;;;87.03;;
2035;SDS011;23642;42.658;23.350;2023-05-07T11:33:54;97.00;;;91.00;;
2035;SDS011;23642;42.658;23.350;2023-05-07T11:36:22;96.57;;;90.87;;
2035;SDS011;23642;42.658;23.350;2023-05-07T11:38:50;96.13;;;90.33;;
2035;SDS011;23642;42.658;23.350;2023-05-07T11:41:17;93.60;;;87.90;;
2035;SDS011;23642;42.658;23.350;2023-05-07T11:46:42;95.40;;;89.70;;
2035;SDS011;23642;42.658;23.350;2023-05-07T11:49:14;95.43;;;89.83;;
2035;SDS011;23642;42.658;23.350;2023-05-07T11:51:46;94.83;;;89.07;;
2035;SDS011;23642;42.658;23.350;2023-05-07T11:54:16;95.40;;;89.57;;
2035;SDS011;23642;42.658;23.350;2023-05-07T11:56:44;96.30;;;90.40;;
2035;SDS011;23642;42.658;23.350;2023-05-07T11:59:18;97.67;;;91.73;;
2035;SDS011;23642;42.658;23.350;2023-05-07T12:01:46;95.90;;;89.83;;
2035;SDS011;23642;42.658;23.350;2023-05-07T12:04:19;92.67;;;87.03;;
2035;SDS011;23642;42.658;23.350;2023-05-07T12:06:47;94.07;;;88.07;;
2035;SDS011;23642;42.658;23.350;2023-05-07T12:09:16;97.80;;;92.00;;
2035;SDS011;23642;42.658;23.350;2023-05-07T12:11:45;93.57;;;87.77;;
2035;SDS011;23642;42.658;23.350;2023-05-07T12:14:12;97.47;;;91.37;;
2035;SDS011;23642;42.658;23.350;2023-05-07T12:16:42;94.13;;;88.50;;
2035;SDS011;23642;42.658;23.350;2023-05-07T12:19:17;95.60;;;89.77;;
2035;SDS011;23642;42.658;23.350;2023-05-07T12:21:44;97.27;;;91.13;;
2035;SDS011;23642;42.658;23.350;2023-05-07T12:24:11;96.67;;;90.90;;
2035;SDS011;23642;42.658;23.350;2023-05-07T12:26:41;96.80;;;91.10;;
2035;SDS011;23642;42.658;23.350;2023-05-07T12:29:14;95.10;;;89.47;;
2035;SDS011;23642;42.658;23.350;2023-05-07T12:31:44;94.10;;;88.60;;
2035;SDS011;23642;42.658;23.350;2023-05-07T12:34:20;95.63;;;89.97;;
2035;SDS011;23642;42.658;23.350;2023-05-07T12:36:49;96.67;;;90.87;;
2035;SDS011;23642;42.658;23.350;2023-05-07T12:39:18;94.80;;;89.10;;
2035;SDS011;23642;42.658;23.350;2023-05-07T12:41:54;97.13;;;91.27;;
2035;SDS011;23642;42.658;23.350;2023-05-07T12:44:23;97.00;;;91.10;;
2035;SDS011;23642;42.658;23.350;2023-05-07T12:47:08;98.13;;;92.43;;
2035;SDS011;23642;42.658;23.350;2023-05-07T12:49:35;94.87;;;88.97;;
2035;SDS011;23642;42.658;23.350;2023-05-07T12:52:04;95.57;;;89.90;;
2035;SDS011;23642;42.658;23.350;2023-05-07T12:54:31;98.07;;;92.23;;
2035;SDS011;23642;42.658;23.350;2023-05-07T12:57:01;99.63;;;93.73;;
2035;SDS011;23642;42.658;23.350;2023-05-07T12:59:33;97.53;;;91.70;;
2035;SDS011;23642;42.658;23.350;2023-05-07T13:02:01;96.40;;;90.70;;
2035;SDS011;23642;42.658;23.350;2023-05-07T13:04:29;95.03;;;89.50;;
2035;SDS011;23642;42.658;23.350;2023-05-07T13:06:57;97.03;;;91.03;;
2035;SDS011;23642;42.658;23.350;2023-05-07T13:09:24;95.73;;;90.10;;
2035;SDS011;23642;42.658;23.350;2023-05-07T13:11:53;95.90;;;90.30;;
2035;SDS011;23642;42.658;23.350;2023-05-07T13:14:20;94.23;;;88.73;;
2035;SDS011;23642;42.658;23.350;2023-05-07T13:16:48;90.07;;;84.70;;
2035;SDS011;23642;42.658;23.350;2023-05-07T13:19:15;95.87;;;90.27;;
2035;SDS011;23642;42.658;23.350;2023-05-07T13:21:44;95.87;;;89.97;;
2035;SDS011;23642;42.658;23.350;2023-05-07T13:24:16;93.43;;;87.97;;
2035;SDS011;23642;42.658;23.350;2023-05-07T13:26:43;95.47;;;89.37;;
2035;SDS011;23642;42.658;23.350;2023-05-07T13:29:13;96.87;;;91.07;;
2035;SDS011;23642;42.658;23.350;2023-05-07T13:31:45;95.60;;;90.00;;
2035;SDS011;23642;42.658;23.350;2023-05-07T13:34:15;93.37;;;87.97;;
2035;SDS011;23642;42.658;23.350;2023-05-07T13:36:44;95.20;;;89.53;;
2035;SDS011;23642;42.658;23.350;2023-05-07T13:39:11;94.93;;;89.13;;
2035;SDS011;23642;42.658;23.350;2023-05-07T13:41:40;94.43;;;88.83;;
2035;SDS011;23642;42.658;23.350;2023-05-07T13:44:07;95.70;;;90.10;;
2035;SDS011;23642;42.658;23.350;2023-05-07T13:46:34;95.27;;;89.87;;
2035;SDS011;23642;42.658;23.350;2023-05-07T13:49:04;94.63;;;89.07;;
2035;SDS011;23642;42.658;23.350;2023-05-07T13:51:31;95.17;;;89.60;;
2035;SDS011;23642;42.658;23.350;2023-05-07T13:54:00;93.43;;;87.93;;
2035;SDS011;23642;42.658;23.350;2023-05-07T13:56:29;95.67;;;90.07;;
2035;SDS011;23642;42.658;23.350;2023-05-07T13:58:57;98.00;;;91.70;;
2035;SDS011;23642;42.658;23.350;2023-05-07T14:01:26;100.87;;;95.17;;
2035;SDS011;23642;42.658;23.350;2023-05-07T14:03:54;98.33;;;92.80;;
2035;SDS011;23642;42.658;23.350;2023-05-07T14:06:24;95.23;;;89.73;;
2035;SDS011;23642;42.658;23.350;2023-05-07T14:08:51;92.17;;;86.77;;
2035;SDS011;23642;42.658;23.350;2023-05-07T14:11:20;92.80;;;86.97;;
2035;SDS011;23642;42.658;23.350;2023-05-07T14:13:47;94.00;;;88.60;;
2035;SDS011;23642;42.658;23.350;2023-05-07T14:16:19;93.60;;;88.10;;
2035;SDS011;23642;42.658;23.350;2023-05-07T14:18:52;92.67;;;87.27;;
2035;SDS011;23642;42.658;23.350;2023-05-07T14:21:19;91.87;;;86.47;;
2035;SDS011;23642;42.658;23.350;2023-05-07T14:23:47;94.30;;;88.80;;
2035;SDS011;23642;42.658;23.350;2023-05-07T14:26:15;93.77;;;88.27;;
2035;SDS011;23642;42.658;23.350;2023-05-07T14:28:43;95.07;;;89.07;;
2035;SDS011;23642;42.658;23.350;2023-05-07T14:31:11;95.53;;;89.93;;
2035;SDS011;23642;42.658;23.350;2023-05-07T14:33:38;94.37;;;88.77;;
2035;SDS011;23642;42.658;23.350;2023-05-07T14:36:08;92.73;;;87.13;;
2035;SDS011;23642;42.658;23.350;2023-05-07T14:38:40;93.63;;;88.03;;
2035;SDS011;23642;42.658;23.350;2023-05-07T14:41:07;92.43;;;87.10;;
2035;SDS011;23642;42.658;23.350;2023-05-07T14:43:34;93.50;;;87.90;;
2035;SDS011;23642;42.658;23.350;2023-05-07T14:46:03;94.60;;;89.00;;